createdAt,value
2023-08-23T00:01:24.554Z,3.00
2023-08-23T00:03:51.925Z,3.17
2023-08-23T00:06:19.292Z,2.97
2023-08-23T00:08:46.673Z,3.25
2023-08-23T00:11:13.939Z,3.25
2023-08-23T00:13:41.257Z,3.40
2023-08-23T00:16:08.548Z,3.03
2023-08-23T00:18:35.874Z,3.58
2023-08-23T00:21:03.180Z,4.07
2023-08-23T00:23:30.510Z,2.72
2023-08-23T00:25:57.819Z,3.42
2023-08-23T00:28:25.244Z,3.97
2023-08-23T00:30:52.622Z,3.38
2023-08-23T00:33:20.072Z,3.22
2023-08-23T00:35:47.450Z,3.28
2023-08-23T00:38:14.861Z,3.55
2023-08-23T00:40:42.254Z,3.08
2023-08-23T00:43:09.582Z,3.72
2023-08-23T00:45:37.208Z,3.17
2023-08-23T00:48:04.536Z,3.10
2023-08-23T00:50:31.875Z,2.10
2023-08-23T00:52:59.196Z,2.70
2023-08-23T00:55:26.508Z,2.45
2023-08-23T00:57:53.840Z,2.65
2023-08-23T01:00:21.136Z,2.92
2023-08-23T01:02:48.447Z,2.63
2023-08-23T01:05:15.804Z,2.70
2023-08-23T01:07:43.107Z,2.85
2023-08-23T01:10:10.638Z,2.63
2023-08-23T01:12:37.948Z,3.03
2023-08-23T01:15:05.241Z,2.10
2023-08-23T01:17:32.584Z,2.50
2023-08-23T01:19:59.912Z,2.25
2023-08-23T01:22:27.245Z,2.33
2023-08-23T01:24:54.565Z,2.38
2023-08-23T01:27:21.926Z,2.30
2023-08-23T01:29:49.129Z,2.28
2023-08-23T01:32:16.518Z,2.97
2023-08-23T01:34:44.265Z,2.20
2023-08-23T01:37:11.578Z,2.60
2023-08-23T01:39:38.857Z,2.63
2023-08-23T01:42:06.200Z,2.47
2023-08-23T01:44:35.009Z,2.50
2023-08-23T01:47:02.334Z,2.72
2023-08-23T01:49:29.691Z,2.53
2023-08-23T01:51:56.994Z,2.70
2023-08-23T01:54:24.399Z,3.05
2023-08-23T01:56:51.686Z,3.50
2023-08-23T01:59:18.997Z,2.50
2023-08-23T02:01:46.340Z,2.20
2023-08-23T02:04:13.674Z,2.83
2023-08-23T02:06:40.974Z,2.88
2023-08-23T02:09:08.239Z,2.90
2023-08-23T02:11:37.995Z,2.97
2023-08-23T02:14:05.306Z,2.53
2023-08-23T02:16:33.339Z,2.90
2023-08-23T02:19:00.640Z,2.33
2023-08-23T02:21:27.898Z,2.83
2023-08-23T02:23:55.237Z,2.88
2023-08-23T02:26:22.566Z,2.63
2023-08-23T02:28:49.864Z,3.15
2023-08-23T02:31:17.161Z,3.58
2023-08-23T02:33:44.509Z,3.00
2023-08-23T02:36:11.804Z,2.72
2023-08-23T02:38:39.080Z,2.97
2023-08-23T02:41:06.401Z,3.38
2023-08-23T02:43:33.700Z,3.10
2023-08-23T02:46:01.021Z,2.97
2023-08-23T02:48:30.053Z,3.00
2023-08-23T02:50:57.325Z,3.42
2023-08-23T02:53:24.648Z,3.03
2023-08-23T02:55:51.918Z,2.72
2023-08-23T02:58:19.270Z,3.60
2023-08-23T03:00:46.499Z,4.57
2023-08-23T03:03:13.835Z,3.47
2023-08-23T03:05:41.120Z,3.50
2023-08-23T03:08:08.342Z,4.18
2023-08-23T03:10:37.786Z,3.85
2023-08-23T03:13:05.044Z,3.63
2023-08-23T03:15:32.354Z,3.53
2023-08-23T03:18:00.050Z,3.63
2023-08-23T03:20:27.445Z,3.97
2023-08-23T03:22:54.706Z,3.10
2023-08-23T03:25:22.036Z,3.05
2023-08-23T03:27:53.573Z,3.78
2023-08-23T03:30:21.093Z,3.10
2023-08-23T03:32:48.601Z,3.40
2023-08-23T03:35:17.075Z,3.47
2023-08-23T03:37:44.389Z,3.78
2023-08-23T03:40:11.673Z,3.72
2023-08-23T03:42:38.960Z,4.20
2023-08-23T03:45:06.267Z,3.58
2023-08-23T03:47:33.658Z,3.88
2023-08-23T03:50:01.068Z,3.92
2023-08-23T03:52:28.494Z,3.85
2023-08-23T03:54:55.830Z,3.85
2023-08-23T03:57:23.133Z,3.40
2023-08-23T03:59:50.356Z,3.90
2023-08-23T04:02:17.661Z,3.58
2023-08-23T04:04:45.022Z,4.82
2023-08-23T04:07:12.291Z,3.90
2023-08-23T04:09:41.929Z,3.03
2023-08-23T04:12:09.286Z,3.83
2023-08-23T04:14:37.183Z,3.95
2023-08-23T04:17:05.209Z,3.80
2023-08-23T04:19:32.454Z,5.50
2023-08-23T04:21:59.760Z,3.50
2023-08-23T04:24:27.106Z,3.40
2023-08-23T04:26:54.495Z,3.63
2023-08-23T04:29:22.688Z,4.28
2023-08-23T04:31:50.209Z,3.78
2023-08-23T04:34:25.882Z,3.85
2023-08-23T04:36:53.223Z,4.65
2023-08-23T04:39:20.532Z,4.57
2023-08-23T04:41:47.961Z,4.03
2023-08-23T04:44:15.228Z,4.00
2023-08-23T04:46:42.568Z,3.90
2023-08-23T04:49:11.414Z,5.05
2023-08-23T04:51:38.788Z,5.93
2023-08-23T04:54:06.120Z,4.50
2023-08-23T04:56:33.470Z,3.33
2023-08-23T04:59:00.778Z,4.15
2023-08-23T05:01:28.165Z,3.90
2023-08-23T05:03:55.475Z,5.30
2023-08-23T05:06:23.643Z,4.35
2023-08-23T05:08:52.380Z,5.30
2023-08-23T05:11:24.301Z,3.70
2023-08-23T05:13:52.711Z,4.30
2023-08-23T05:16:20.601Z,4.68
2023-08-23T05:18:48.004Z,4.55
2023-08-23T05:21:15.375Z,4.75
2023-08-23T05:23:42.726Z,4.38
2023-08-23T05:26:09.947Z,5.43
2023-08-23T05:28:37.617Z,5.95
2023-08-23T05:31:04.876Z,5.72
2023-08-23T05:33:34.163Z,6.75
2023-08-23T05:36:03.690Z,6.32
2023-08-23T05:38:31.198Z,6.00
2023-08-23T05:41:02.517Z,6.25
2023-08-23T05:43:29.908Z,6.18
2023-08-23T05:45:57.898Z,5.80
2023-08-23T05:48:25.261Z,5.22
2023-08-23T05:50:52.591Z,5.25
2023-08-23T05:53:20.392Z,5.25
2023-08-23T05:55:48.351Z,5.22
2023-08-23T05:58:15.673Z,5.03
2023-08-23T06:00:42.922Z,5.32
2023-08-23T06:03:10.406Z,5.03
2023-08-23T06:05:37.752Z,4.65
2023-08-23T06:08:05.077Z,5.18
2023-08-23T06:10:32.796Z,4.07
2023-08-23T06:13:00.161Z,4.00
2023-08-23T06:15:27.507Z,4.30
2023-08-23T06:17:54.872Z,4.63
2023-08-23T06:20:22.269Z,4.68
2023-08-23T06:22:49.617Z,5.18
2023-08-23T06:25:17.090Z,4.15
2023-08-23T06:27:45.982Z,4.15
2023-08-23T06:30:17.107Z,4.18
2023-08-23T06:32:44.666Z,4.93
2023-08-23T06:35:14.803Z,4.35
2023-08-23T06:37:42.103Z,4.38
2023-08-23T06:40:09.805Z,3.95
2023-08-23T06:42:37.279Z,3.92
2023-08-23T06:45:04.579Z,4.25
2023-08-23T06:47:32.050Z,4.97
2023-08-23T06:49:59.356Z,3.63
2023-08-23T06:52:26.801Z,4.15
2023-08-23T06:54:54.456Z,3.83
2023-08-23T06:57:22.980Z,3.50
2023-08-23T06:59:50.163Z,3.63
2023-08-23T07:02:18.013Z,3.92
2023-08-23T07:04:45.250Z,3.20
2023-08-23T07:07:12.790Z,2.90
2023-08-23T07:09:40.444Z,2.97
2023-08-23T07:12:07.686Z,2.65
2023-08-23T07:14:34.987Z,2.90
2023-08-23T07:17:02.288Z,2.75
2023-08-23T07:19:29.566Z,3.08
2023-08-23T07:21:58.480Z,3.08
2023-08-23T07:24:25.961Z,2.92
2023-08-23T07:26:55.280Z,3.08
2023-08-23T07:29:22.547Z,2.70
2023-08-23T07:31:49.898Z,3.30
2023-08-23T07:34:17.662Z,2.83
2023-08-23T07:36:45.027Z,2.83
2023-08-23T07:39:12.354Z,2.45
2023-08-23T07:41:39.735Z,2.30
2023-08-23T07:44:07.223Z,2.40
2023-08-23T07:46:34.515Z,2.28
2023-08-23T07:49:01.805Z,2.28
2023-08-23T07:51:29.608Z,2.70
2023-08-23T07:54:00.422Z,2.10
2023-08-23T07:56:27.785Z,2.45
2023-08-23T07:58:55.646Z,2.85
2023-08-23T08:01:23.028Z,1.88
2023-08-23T08:03:52.609Z,3.08
2023-08-23T08:06:20.060Z,2.05
2023-08-23T08:08:47.284Z,2.85
2023-08-23T08:11:14.721Z,1.98
2023-08-23T08:13:42.577Z,2.40
2023-08-23T08:16:10.173Z,1.75
2023-08-23T08:18:37.547Z,1.52
2023-08-23T08:21:05.541Z,1.52
2023-08-23T08:23:32.877Z,1.90
2023-08-23T08:26:00.193Z,1.83
2023-08-23T08:28:27.426Z,1.88
2023-08-23T08:30:54.802Z,2.08
2023-08-23T08:33:22.068Z,1.90
2023-08-23T08:35:49.480Z,2.67
2023-08-23T08:38:17.752Z,2.28
2023-08-23T08:40:45.059Z,2.20
2023-08-23T08:43:12.302Z,2.92
2023-08-23T08:45:40.690Z,2.60
2023-08-23T08:48:08.140Z,1.80
2023-08-23T08:50:35.652Z,3.15
2023-08-23T08:53:02.955Z,2.05
2023-08-23T08:55:30.849Z,2.10
2023-08-23T08:57:58.128Z,1.80
2023-08-23T09:00:25.491Z,1.85
2023-08-23T09:02:53.150Z,1.67
2023-08-23T09:05:20.509Z,1.65
2023-08-23T09:07:48.311Z,1.45
2023-08-23T09:10:15.988Z,1.60
2023-08-23T09:12:43.254Z,2.63
2023-08-23T09:15:10.635Z,1.65
2023-08-23T09:17:37.954Z,1.55
2023-08-23T09:20:06.795Z,2.50
2023-08-23T09:22:34.967Z,2.05
2023-08-23T09:25:11.796Z,1.73
2023-08-23T09:27:39.156Z,1.70
2023-08-23T09:30:08.481Z,1.60
2023-08-23T09:32:35.994Z,2.00
2023-08-23T09:35:05.102Z,1.58
2023-08-23T09:37:40.449Z,1.88
2023-08-23T09:42:57.197Z,1.83
2023-08-23T09:45:32.633Z,1.30
2023-08-23T09:48:01.151Z,1.65
2023-08-23T09:50:31.895Z,1.13
2023-08-23T09:53:01.603Z,2.00
2023-08-23T09:55:30.789Z,4.30
2023-08-23T09:57:58.131Z,2.10
2023-08-23T10:00:33.037Z,2.20
2023-08-23T10:03:01.626Z,1.77
2023-08-23T10:05:29.518Z,1.83
2023-08-23T10:07:58.506Z,1.55
2023-08-23T10:10:26.270Z,2.20
2023-08-23T10:12:53.662Z,2.28
2023-08-23T10:15:21.072Z,1.67
2023-08-23T10:17:48.936Z,1.58
2023-08-23T10:20:16.469Z,1.77
2023-08-23T10:22:43.864Z,1.25
2023-08-23T10:25:11.174Z,3.00
2023-08-23T10:27:38.548Z,1.80
2023-08-23T10:30:19.365Z,2.10
2023-08-23T10:32:50.637Z,1.80
2023-08-23T10:35:17.950Z,1.85
2023-08-23T10:37:45.214Z,1.58
2023-08-23T10:40:13.759Z,1.08
2023-08-23T10:42:41.127Z,1.80
2023-08-23T10:45:08.385Z,1.40
2023-08-23T10:47:35.786Z,1.35
2023-08-23T10:50:03.797Z,1.30
2023-08-23T10:52:31.060Z,1.30
2023-08-23T10:54:58.349Z,1.90
2023-08-23T10:57:26.091Z,1.35
2023-08-23T10:59:53.371Z,1.70
2023-08-23T11:02:20.819Z,1.20
2023-08-23T11:04:48.431Z,1.40
2023-08-23T11:07:15.785Z,1.23
2023-08-23T11:09:43.161Z,1.63
2023-08-23T11:12:10.504Z,1.40
2023-08-23T11:14:37.725Z,1.90
2023-08-23T11:17:05.151Z,1.63
2023-08-23T11:19:32.396Z,1.40
2023-08-23T11:21:59.763Z,1.25
2023-08-23T11:24:27.703Z,1.20
2023-08-23T11:26:55.124Z,1.63
2023-08-23T11:29:22.394Z,1.42
2023-08-23T11:31:49.852Z,1.48
2023-08-23T11:34:17.206Z,1.70
2023-08-23T11:36:44.539Z,1.40
2023-08-23T11:39:11.788Z,1.45
2023-08-23T11:41:39.887Z,1.70
2023-08-23T11:44:07.221Z,1.35
2023-08-23T11:46:39.166Z,1.63
2023-08-23T11:49:06.565Z,1.75
2023-08-23T11:51:33.841Z,1.75
2023-08-23T11:54:01.222Z,1.80
2023-08-23T11:56:28.710Z,2.13
2023-08-23T11:58:56.051Z,1.60
2023-08-23T12:01:23.377Z,1.50
2023-08-23T12:03:51.639Z,1.60
2023-08-23T12:06:19.854Z,1.60
2023-08-23T12:08:47.775Z,1.55
2023-08-23T12:11:16.133Z,1.63
2023-08-23T12:13:43.537Z,1.80
2023-08-23T12:16:11.562Z,1.65
2023-08-23T12:18:38.949Z,1.65
2023-08-23T12:21:06.291Z,1.63
2023-08-23T12:23:33.648Z,1.52
2023-08-23T12:26:01.117Z,1.52
2023-08-23T12:28:28.525Z,2.08
2023-08-23T12:30:55.834Z,1.40
2023-08-23T12:33:23.148Z,2.00
2023-08-23T12:35:50.410Z,1.80
2023-08-23T12:38:17.772Z,1.85
2023-08-23T12:40:45.150Z,1.17
2023-08-23T12:43:12.471Z,1.60
2023-08-23T12:45:39.976Z,1.27
2023-08-23T12:48:07.354Z,1.20
2023-08-23T12:50:34.657Z,1.60
2023-08-23T12:53:03.099Z,1.48
2023-08-23T12:55:30.636Z,1.60
2023-08-23T12:57:57.950Z,1.33
2023-08-23T13:00:30.948Z,1.77
2023-08-23T13:03:00.056Z,1.60
2023-08-23T13:05:27.408Z,1.50
2023-08-23T13:07:54.764Z,2.05
2023-08-23T13:10:22.032Z,1.42
2023-08-23T13:12:49.371Z,1.42
2023-08-23T13:15:17.629Z,1.63
2023-08-23T13:17:45.247Z,2.47
2023-08-23T13:20:13.136Z,1.85
2023-08-23T13:22:40.578Z,1.92
2023-08-23T13:25:07.906Z,1.70
2023-08-23T13:27:35.728Z,1.50
2023-08-23T13:30:03.613Z,1.50
2023-08-23T13:32:30.969Z,1.48
2023-08-23T13:34:58.318Z,1.58
2023-08-23T13:37:25.594Z,2.10
2023-08-23T13:39:52.788Z,1.67
2023-08-23T13:42:20.624Z,1.48
2023-08-23T13:44:47.894Z,1.55
2023-08-23T13:47:15.295Z,1.75
2023-08-23T13:49:42.567Z,2.10
2023-08-23T13:52:09.893Z,1.48
2023-08-23T13:54:37.218Z,1.90
2023-08-23T13:57:05.762Z,1.52
2023-08-23T13:59:33.250Z,1.75
2023-08-23T14:02:00.688Z,1.60
2023-08-23T14:04:28.912Z,1.75
2023-08-23T14:06:56.383Z,1.88
2023-08-23T14:09:23.638Z,2.10
2023-08-23T14:11:50.993Z,1.52
2023-08-23T14:14:19.035Z,1.65
2023-08-23T14:16:46.785Z,1.30
2023-08-23T14:19:14.188Z,1.58
2023-08-23T14:21:41.583Z,1.65
2023-08-23T14:24:08.866Z,1.40
2023-08-23T14:26:36.345Z,1.73
2023-08-23T14:29:04.073Z,1.67
2023-08-23T14:31:31.714Z,2.03
2023-08-23T14:33:59.075Z,1.85
2023-08-23T14:36:26.448Z,2.05
2023-08-23T14:38:56.208Z,2.10
2023-08-23T14:41:24.804Z,1.83
2023-08-23T14:43:52.065Z,1.55
2023-08-23T14:46:19.411Z,1.73
2023-08-23T14:48:46.785Z,1.45
2023-08-23T14:51:14.013Z,2.17
2023-08-23T14:53:41.268Z,1.50
2023-08-23T14:56:08.568Z,1.52
2023-08-23T14:58:35.817Z,1.70
2023-08-23T15:01:03.252Z,1.33
2023-08-23T15:03:30.599Z,1.55
2023-08-23T15:05:58.034Z,1.45
2023-08-23T15:08:29.240Z,2.00
2023-08-23T15:10:56.572Z,1.70
2023-08-23T15:13:23.799Z,1.60
2023-08-23T15:15:51.720Z,1.77
2023-08-23T15:18:19.191Z,1.42
2023-08-23T15:20:46.487Z,1.60
2023-08-23T15:23:13.819Z,1.35
2023-08-23T15:25:41.378Z,1.65
2023-08-23T15:28:08.642Z,1.63
2023-08-23T15:30:37.479Z,1.38
2023-08-23T15:33:05.964Z,1.42
2023-08-23T15:35:33.241Z,1.90
2023-08-23T15:38:00.618Z,1.60
2023-08-23T15:40:28.228Z,1.60
2023-08-23T15:42:55.467Z,2.00
2023-08-23T15:45:22.768Z,1.77
2023-08-23T15:47:51.725Z,1.50
2023-08-23T15:50:21.155Z,1.38
2023-08-23T15:52:48.400Z,1.40
2023-08-23T15:55:15.717Z,1.45
2023-08-23T15:57:43.153Z,1.83
2023-08-23T16:00:11.574Z,1.73
2023-08-23T16:02:41.940Z,1.70
2023-08-23T16:05:11.884Z,1.45
2023-08-23T16:07:39.338Z,1.70
2023-08-23T16:10:07.197Z,1.77
2023-08-23T16:12:34.506Z,1.80
2023-08-23T16:15:01.791Z,1.55
2023-08-23T16:17:29.029Z,1.77
2023-08-23T16:19:56.446Z,1.33
2023-08-23T16:22:23.707Z,1.33
2023-08-23T16:24:51.275Z,1.50
2023-08-23T16:27:18.524Z,1.70
2023-08-23T16:29:46.130Z,1.70
2023-08-23T16:32:13.381Z,1.38
2023-08-23T16:34:40.651Z,1.45
2023-08-23T16:37:07.848Z,1.40
2023-08-23T16:39:37.473Z,1.77
2023-08-23T16:42:04.903Z,1.80
2023-08-23T16:44:32.189Z,1.63
2023-08-23T16:46:59.426Z,1.63
2023-08-23T16:49:27.512Z,1.58
2023-08-23T16:51:56.431Z,1.63
2023-08-23T16:54:23.829Z,1.95
2023-08-23T16:56:51.296Z,1.75
2023-08-23T16:59:18.609Z,1.90
2023-08-23T17:01:45.847Z,1.65
2023-08-23T17:04:13.170Z,1.80
2023-08-23T17:06:40.414Z,1.65
2023-08-23T17:09:08.468Z,1.75
2023-08-23T17:11:35.717Z,1.75
2023-08-23T17:14:03.028Z,1.90
2023-08-23T17:16:30.933Z,2.67
2023-08-23T17:18:58.325Z,1.70
2023-08-23T17:21:25.542Z,1.60
2023-08-23T17:23:52.796Z,1.42
2023-08-23T17:26:20.160Z,1.55
2023-08-23T17:28:47.435Z,1.63
2023-08-23T17:31:14.768Z,1.95
2023-08-23T17:33:42.168Z,2.58
2023-08-23T17:36:09.481Z,1.88
2023-08-23T17:38:36.795Z,1.70
2023-08-23T17:41:04.966Z,1.92
2023-08-23T17:43:32.202Z,2.25
2023-08-23T17:45:59.491Z,2.53
2023-08-23T17:48:26.764Z,1.73
2023-08-23T17:50:53.980Z,2.25
2023-08-23T17:53:21.322Z,2.08
2023-08-23T17:55:49.308Z,2.13
2023-08-23T17:58:16.556Z,2.25
2023-08-23T18:00:43.857Z,1.98
2023-08-23T18:03:13.769Z,1.80
2023-08-23T18:05:41.168Z,2.47
2023-08-23T18:08:08.472Z,2.22
2023-08-23T18:10:35.720Z,1.92
2023-08-23T18:13:03.040Z,1.65
2023-08-23T18:15:30.380Z,1.73
2023-08-23T18:17:57.730Z,2.20
2023-08-23T18:20:25.090Z,2.08
2023-08-23T18:22:52.506Z,2.35
2023-08-23T18:25:20.060Z,1.98
2023-08-23T18:27:47.315Z,2.08
2023-08-23T18:30:14.679Z,1.88
2023-08-23T18:32:43.156Z,1.73
2023-08-23T18:35:10.623Z,2.30
2023-08-23T18:37:37.907Z,2.25
2023-08-23T18:40:05.599Z,2.72
2023-08-23T18:42:32.865Z,2.63
2023-08-23T18:45:00.282Z,2.85
2023-08-23T18:47:27.603Z,2.10
2023-08-23T18:49:56.235Z,1.95
2023-08-23T18:52:25.055Z,2.22
2023-08-23T18:54:52.478Z,2.17
2023-08-23T18:57:19.791Z,2.15
2023-08-23T18:59:47.046Z,2.05
2023-08-23T19:02:14.300Z,2.60
2023-08-23T19:04:41.596Z,2.40
2023-08-23T19:07:09.061Z,2.08
2023-08-23T19:09:36.418Z,2.45
2023-08-23T19:12:03.733Z,2.40
2023-08-23T19:14:30.971Z,1.92
2023-08-23T19:16:58.331Z,2.80
2023-08-23T19:19:25.551Z,2.30
2023-08-23T19:21:59.686Z,2.10
2023-08-23T19:24:27.120Z,2.60
2023-08-23T19:26:54.465Z,3.13
2023-08-23T19:29:22.366Z,2.45
2023-08-23T19:31:49.618Z,3.08
2023-08-23T19:34:17.156Z,2.78
2023-08-23T19:36:44.455Z,2.55
2023-08-23T19:39:12.508Z,3.47
2023-08-23T19:41:39.787Z,3.50
2023-08-23T19:44:07.178Z,3.58
2023-08-23T19:46:34.406Z,3.50
2023-08-23T19:49:01.751Z,3.72
2023-08-23T19:51:29.058Z,4.35
2023-08-23T19:53:56.409Z,4.30
2023-08-23T19:56:24.734Z,3.25
2023-08-23T19:58:52.209Z,4.38
2023-08-23T20:01:19.513Z,4.57
2023-08-23T20:03:46.919Z,3.40
2023-08-23T20:06:14.240Z,4.18
2023-08-23T20:08:41.530Z,4.07
2023-08-23T20:11:08.969Z,3.47
2023-08-23T20:13:36.571Z,3.38
2023-08-23T20:16:03.930Z,3.40
2023-08-23T20:18:31.223Z,3.22
2023-08-23T20:20:58.464Z,3.05
2023-08-23T20:23:25.762Z,2.92
2023-08-23T20:25:53.068Z,2.40
2023-08-23T20:28:20.423Z,2.70
2023-08-23T20:30:49.169Z,2.42
2023-08-23T20:33:16.489Z,3.45
2023-08-23T20:35:44.468Z,2.63
2023-08-23T20:38:11.828Z,2.67
2023-08-23T20:40:39.052Z,2.80
2023-08-23T20:43:06.383Z,2.58
2023-08-23T20:45:33.775Z,2.60
2023-08-23T20:48:01.211Z,2.78
2023-08-23T20:50:28.535Z,2.63
2023-08-23T20:52:55.953Z,2.95
2023-08-23T20:55:23.383Z,2.60
2023-08-23T20:57:50.829Z,3.03
2023-08-23T21:00:18.665Z,2.40
2023-08-23T21:02:46.046Z,2.42
2023-08-23T21:05:16.428Z,2.55
2023-08-23T21:07:43.758Z,2.67
2023-08-23T21:10:10.994Z,2.45
2023-08-23T21:12:38.327Z,2.42
2023-08-23T21:15:05.559Z,4.10
2023-08-23T21:17:35.385Z,2.30
2023-08-23T21:20:07.797Z,2.55
2023-08-23T21:22:36.373Z,2.50
2023-08-23T21:25:03.617Z,2.60
2023-08-23T21:27:30.972Z,2.50
2023-08-23T21:29:58.193Z,3.13
2023-08-23T21:32:25.683Z,2.80
2023-08-23T21:34:53.089Z,2.47
2023-08-23T21:37:20.558Z,2.83
2023-08-23T21:39:47.896Z,2.80
2023-08-23T21:42:15.245Z,2.78
2023-08-23T21:44:43.613Z,2.90
2023-08-23T21:47:12.290Z,2.78
2023-08-23T21:49:39.604Z,3.35
2023-08-23T21:52:06.941Z,2.80
2023-08-23T21:54:34.236Z,2.50
2023-08-23T21:57:01.659Z,2.50
2023-08-23T21:59:28.925Z,3.00
2023-08-23T22:01:56.287Z,2.80
2023-08-23T22:04:24.873Z,3.03
2023-08-23T22:06:52.199Z,2.90
2023-08-23T22:09:19.518Z,2.58
2023-08-23T22:11:47.206Z,2.50
2023-08-23T22:14:14.471Z,2.90
2023-08-23T22:16:41.760Z,2.53
2023-08-23T22:19:09.559Z,3.20
2023-08-23T22:21:37.066Z,2.85
2023-08-23T22:24:04.378Z,2.95
2023-08-23T22:26:32.417Z,2.95
2023-08-23T22:28:59.690Z,3.28
2023-08-23T22:31:27.052Z,3.08
2023-08-23T22:33:54.339Z,3.95
2023-08-23T22:36:21.707Z,2.60
2023-08-23T22:38:49.161Z,2.72
2023-08-23T22:41:20.437Z,3.53
2023-08-23T22:43:47.804Z,2.97
2023-08-23T22:46:25.922Z,3.03
2023-08-23T22:48:58.707Z,2.80
2023-08-23T22:51:25.978Z,3.10
2023-08-23T22:53:53.395Z,3.05
2023-08-23T22:56:20.695Z,2.70
2023-08-23T22:58:48.025Z,2.78
2023-08-23T23:01:15.540Z,3.03
2023-08-23T23:03:42.972Z,2.65
2023-08-23T23:06:10.582Z,2.70
2023-08-23T23:08:37.933Z,2.90
2023-08-23T23:11:05.601Z,3.40
2023-08-23T23:13:33.184Z,2.90
2023-08-23T23:16:00.491Z,2.80
2023-08-23T23:18:27.844Z,2.95
2023-08-23T23:20:55.047Z,3.08
2023-08-23T23:23:22.382Z,2.78
2023-08-23T23:25:49.693Z,3.63
2023-08-23T23:28:17.047Z,2.70
2023-08-23T23:30:44.365Z,3.97
2023-08-23T23:33:11.789Z,2.90
2023-08-23T23:35:39.068Z,2.40
2023-08-23T23:38:06.435Z,2.95
2023-08-23T23:40:33.871Z,2.67
2023-08-23T23:43:01.246Z,3.28
2023-08-23T23:45:28.651Z,3.17
2023-08-23T23:47:56.011Z,2.95
2023-08-23T23:50:23.335Z,2.53
2023-08-23T23:52:50.656Z,3.97
2023-08-23T23:55:17.943Z,3.45
2023-08-23T23:57:45.672Z,2.97
